sensor_id;sensor_type;location;lat;lon;timestamp;pressure;altitude;pressure_sealevel;temperature;humidity
65280;BME280;51878;55.748;48.742;2022-08-01T00:02:03;98965.81;;;16.65;87.44
65280;BME280;51878;55.748;48.742;2022-08-01T00:04:30;99006.28;;;16.86;87.67
65280;BME280;51878;55.748;48.742;2022-08-01T00:06:57;99027.13;;;16.99;87.88
65280;BME280;51878;55.748;48.742;2022-08-01T00:09:25;98975.69;;;16.66;87.50
65280;BME280;51878;55.748;48.742;2022-08-01T00:11:52;99050.22;;;17.03;87.41
65280;BME280;51878;55.748;48.742;2022-08-01T00:14:21;99022.00;;;16.91;86.98
65280;BME280;51878;55.748;48.742;2022-08-01T00:16:58;99045.69;;;16.97;86.83
65280;BME280;51878;55.748;48.742;2022-08-01T00:19:30;99019.47;;;16.78;86.25
65280;BME280;51878;55.748;48.742;2022-08-01T00:21:58;99053.59;;;16.93;86.24
65280;BME280;51878;55.748;48.742;2022-08-01T00:24:25;99066.06;;;16.89;86.08
65280;BME280;51878;55.748;48.742;2022-08-01T00:26:52;99068.94;;;16.94;85.85
65280;BME280;51878;55.748;48.742;2022-08-01T00:29:19;99029.84;;;16.76;85.49
65280;BME280;51878;55.748;48.742;2022-08-01T00:32:06;99050.22;;;16.80;85.99
65280;BME280;51878;55.748;48.742;2022-08-01T00:34:34;99056.91;;;16.84;86.36
65280;BME280;51878;55.748;48.742;2022-08-01T00:37:01;99033.03;;;16.61;87.16
65280;BME280;51878;55.748;48.742;2022-08-01T00:39:29;99063.06;;;16.79;88.02
65280;BME280;51878;55.748;48.742;2022-08-01T00:41:56;98992.19;;;16.36;87.68
65280;BME280;51878;55.748;48.742;2022-08-01T00:44:26;99049.38;;;16.67;88.09
65280;BME280;51878;55.748;48.742;2022-08-01T00:46:53;99048.53;;;16.67;89.09
65280;BME280;51878;55.748;48.742;2022-08-01T00:49:20;99024.69;;;16.44;89.36
65280;BME280;51878;55.748;48.742;2022-08-01T00:51:48;99035.38;;;16.33;89.83
65280;BME280;51878;55.748;48.742;2022-08-01T00:54:15;99070.53;;;16.60;89.83
65280;BME280;51878;55.748;48.742;2022-08-01T00:56:43;99066.13;;;16.59;89.65
65280;BME280;51878;55.748;48.742;2022-08-01T00:59:11;99034.81;;;16.43;89.31
65280;BME280;51878;55.748;48.742;2022-08-01T01:01:40;99022.88;;;16.38;88.55
65280;BME280;51878;55.748;48.742;2022-08-01T01:04:11;99030.50;;;16.36;88.62
65280;BME280;51878;55.748;48.742;2022-08-01T01:12:14;99086.09;;;16.60;88.37
65280;BME280;51878;55.748;48.742;2022-08-01T01:15:10;99082.44;;;16.66;88.02
65280;BME280;51878;55.748;48.742;2022-08-01T01:17:52;99076.84;;;16.61;87.40
65280;BME280;51878;55.748;48.742;2022-08-01T01:20:26;99049.78;;;16.41;87.34
65280;BME280;51878;55.748;48.742;2022-08-01T01:23:10;99057.06;;;16.47;87.17
65280;BME280;51878;55.748;48.742;2022-08-01T01:28:58;99091.38;;;16.73;86.53
65280;BME280;51878;55.748;48.742;2022-08-01T01:31:27;99094.03;;;16.80;86.34
65280;BME280;51878;55.748;48.742;2022-08-01T01:33:58;99061.03;;;16.63;85.83
65280;BME280;51878;55.748;48.742;2022-08-01T01:36:27;99076.25;;;16.70;85.74
65280;BME280;51878;55.748;48.742;2022-08-01T01:38:56;99053.75;;;16.57;86.03
65280;BME280;51878;55.748;48.742;2022-08-01T01:41:24;99068.19;;;16.76;85.80
65280;BME280;51878;55.748;48.742;2022-08-01T01:43:53;99064.00;;;16.73;85.14
65280;BME280;51878;55.748;48.742;2022-08-01T01:46:23;99094.78;;;16.99;85.06
65280;BME280;51878;55.748;48.742;2022-08-01T01:48:55;99053.81;;;16.80;84.81
65280;BME280;51878;55.748;48.742;2022-08-01T01:51:25;99065.34;;;16.94;84.42
65280;BME280;51878;55.748;48.742;2022-08-01T01:53:55;99087.63;;;17.09;84.28
65280;BME280;51878;55.748;48.742;2022-08-01T01:56:24;99096.09;;;17.20;83.64
65280;BME280;51878;55.748;48.742;2022-08-01T01:58:55;99111.56;;;17.26;84.04
65280;BME280;51878;55.748;48.742;2022-08-01T02:01:25;99095.59;;;17.34;83.45
65280;BME280;51878;55.748;48.742;2022-08-01T02:04:04;99040.47;;;17.07;83.10
65280;BME280;51878;55.748;48.742;2022-08-01T02:06:32;99103.94;;;17.51;82.81
65280;BME280;51878;55.748;48.742;2022-08-01T02:09:01;99112.13;;;17.63;81.46
65280;BME280;51878;55.748;48.742;2022-08-01T02:11:31;99004.38;;;16.99;81.51
65280;BME280;51878;55.748;48.742;2022-08-01T02:14:01;99099.84;;;17.66;80.89
65280;BME280;51878;55.748;48.742;2022-08-01T02:16:34;99096.16;;;17.60;80.91
65280;BME280;51878;55.748;48.742;2022-08-01T02:19:02;99061.63;;;17.47;80.71
65280;BME280;51878;55.748;48.742;2022-08-01T02:21:35;99068.25;;;17.63;79.90
65280;BME280;51878;55.748;48.742;2022-08-01T02:24:14;99088.50;;;17.74;79.39
65280;BME280;51878;55.748;48.742;2022-08-01T02:26:47;99105.44;;;17.83;79.38
65280;BME280;51878;55.748;48.742;2022-08-01T02:29:28;99096.25;;;17.77;79.48
65280;BME280;51878;55.748;48.742;2022-08-01T02:32:00;99073.88;;;17.68;78.58
65280;BME280;51878;55.748;48.742;2022-08-01T02:34:29;99103.03;;;17.74;79.05
65280;BME280;51878;55.748;48.742;2022-08-01T02:37:00;99112.13;;;17.87;79.18
65280;BME280;51878;55.748;48.742;2022-08-01T02:39:30;99072.91;;;17.63;79.50
65280;BME280;51878;55.748;48.742;2022-08-01T02:42:06;99112.22;;;17.92;78.73
65280;BME280;51878;55.748;48.742;2022-08-01T02:44:37;99017.66;;;17.30;78.69
65280;BME280;51878;55.748;48.742;2022-08-01T02:47:06;99069.81;;;17.59;79.39
65280;BME280;51878;55.748;48.742;2022-08-01T02:49:36;99096.06;;;18.07;77.48
65280;BME280;51878;55.748;48.742;2022-08-01T02:52:08;99083.44;;;17.94;77.70
65280;BME280;51878;55.748;48.742;2022-08-01T02:54:37;99005.16;;;17.46;77.40
65280;BME280;51878;55.748;48.742;2022-08-01T02:57:07;99085.13;;;17.95;77.31
65280;BME280;51878;55.748;48.742;2022-08-01T02:59:38;99111.50;;;18.25;76.50
65280;BME280;51878;55.748;48.742;2022-08-01T03:02:07;99123.03;;;18.39;76.79
65280;BME280;51878;55.748;48.742;2022-08-01T03:04:38;99122.28;;;18.61;76.13
65280;BME280;51878;55.748;48.742;2022-08-01T03:07:07;99082.81;;;18.33;76.41
65280;BME280;51878;55.748;48.742;2022-08-01T03:09:38;99101.41;;;18.59;75.85
65280;BME280;51878;55.748;48.742;2022-08-01T03:12:15;99113.81;;;18.62;75.99
65280;BME280;51878;55.748;48.742;2022-08-01T03:14:44;99089.03;;;18.57;75.10
65280;BME280;51878;55.748;48.742;2022-08-01T03:17:14;99137.31;;;18.70;75.65
65280;BME280;51878;55.748;48.742;2022-08-01T03:19:44;99118.63;;;18.84;74.67
65280;BME280;51878;55.748;48.742;2022-08-01T03:22:13;99134.41;;;18.76;75.08
65280;BME280;51878;55.748;48.742;2022-08-01T03:24:42;99122.56;;;18.76;74.50
65280;BME280;51878;55.748;48.742;2022-08-01T03:27:11;99133.19;;;18.84;74.46
65280;BME280;51878;55.748;48.742;2022-08-01T03:29:41;99123.88;;;18.85;73.61
65280;BME280;51878;55.748;48.742;2022-08-01T03:32:10;99121.38;;;19.01;73.63
65280;BME280;51878;55.748;48.742;2022-08-01T03:34:38;99048.75;;;18.46;73.51
65280;BME280;51878;55.748;48.742;2022-08-01T03:37:11;99129.84;;;18.82;73.75
65280;BME280;51878;55.748;48.742;2022-08-01T03:39:49;99100.81;;;18.86;73.03
65280;BME280;51878;55.748;48.742;2022-08-01T03:42:24;99087.31;;;18.85;72.45
65280;BME280;51878;55.748;48.742;2022-08-01T03:44:54;99133.84;;;18.91;72.72
65280;BME280;51878;55.748;48.742;2022-08-01T03:47:29;99087.66;;;18.88;72.24
65280;BME280;51878;55.748;48.742;2022-08-01T03:49:57;99109.94;;;19.09;72.59
65280;BME280;51878;55.748;48.742;2022-08-01T03:52:27;99079.59;;;18.98;71.63
65280;BME280;51878;55.748;48.742;2022-08-01T03:54:58;99108.63;;;18.94;72.02
65280;BME280;51878;55.748;48.742;2022-08-01T03:57:27;99086.16;;;18.97;71.49
65280;BME280;51878;55.748;48.742;2022-08-01T04:00:04;99128.59;;;19.07;71.34
65280;BME280;51878;55.748;48.742;2022-08-01T04:02:34;99081.06;;;18.89;71.40
65280;BME280;51878;55.748;48.742;2022-08-01T04:05:02;99105.03;;;19.11;71.48
65280;BME280;51878;55.748;48.742;2022-08-01T04:07:32;99093.38;;;19.04;70.96
65280;BME280;51878;55.748;48.742;2022-08-01T04:09:59;99134.56;;;19.37;70.53
65280;BME280;51878;55.748;48.742;2022-08-01T04:12:26;99064.38;;;19.30;69.47
65280;BME280;51878;55.748;48.742;2022-08-01T04:14:53;99113.19;;;19.61;69.28
65280;BME280;51878;55.748;48.742;2022-08-01T04:17:20;99113.38;;;19.55;69.44
65280;BME280;51878;55.748;48.742;2022-08-01T04:19:48;99104.63;;;19.58;68.83
65280;BME280;51878;55.748;48.742;2022-08-01T04:22:15;99139.28;;;19.59;70.00
65280;BME280;51878;55.748;48.742;2022-08-01T04:24:46;99096.63;;;19.56;69.68
65280;BME280;51878;55.748;48.742;2022-08-01T04:27:25;99127.91;;;19.89;69.26
65280;BME280;51878;55.748;48.742;2022-08-01T04:30:16;99129.25;;;20.09;69.61
65280;BME280;51878;55.748;48.742;2022-08-01T04:32:46;99121.06;;;20.14;68.41
65280;BME280;51878;55.748;48.742;2022-08-01T04:35:18;99061.03;;;19.67;68.17
65280;BME280;51878;55.748;48.742;2022-08-01T04:37:49;99141.38;;;20.35;67.21
65280;BME280;51878;55.748;48.742;2022-08-01T04:40:19;99080.53;;;20.09;67.38
65280;BME280;51878;55.748;48.742;2022-08-01T04:42:49;99130.09;;;20.58;66.97
65280;BME280;51878;55.748;48.742;2022-08-01T04:45:18;99059.50;;;20.25;66.91
65280;BME280;51878;55.748;48.742;2022-08-01T04:47:45;99125.19;;;20.66;66.09
65280;BME280;51878;55.748;48.742;2022-08-01T04:50:14;99096.25;;;20.63;65.80
65280;BME280;51878;55.748;48.742;2022-08-01T04:52:41;99134.50;;;20.87;66.46
65280;BME280;51878;55.748;48.742;2022-08-01T04:57:39;99145.34;;;20.98;64.44
65280;BME280;51878;55.748;48.742;2022-08-01T05:00:07;99137.28;;;21.24;65.69
65280;BME280;51878;55.748;48.742;2022-08-01T05:02:35;99123.75;;;21.22;64.26
65280;BME280;51878;55.748;48.742;2022-08-01T05:05:02;99138.34;;;21.23;64.59
65280;BME280;51878;55.748;48.742;2022-08-01T05:07:29;99067.41;;;20.71;64.31
65280;BME280;51878;55.748;48.742;2022-08-01T05:09:57;99088.91;;;21.06;63.18
65280;BME280;51878;55.748;48.742;2022-08-01T05:12:24;99140.38;;;21.70;62.79
65280;BME280;51878;55.748;48.742;2022-08-01T05:14:51;99107.66;;;21.41;63.73
65280;BME280;51878;55.748;48.742;2022-08-01T05:17:18;99109.44;;;21.68;63.22
65280;BME280;51878;55.748;48.742;2022-08-01T05:19:45;99132.50;;;21.94;63.55
65280;BME280;51878;55.748;48.742;2022-08-01T05:22:12;99139.78;;;22.21;61.25
65280;BME280;51878;55.748;48.742;2022-08-01T05:24:40;99119.81;;;21.98;61.36
65280;BME280;51878;55.748;48.742;2022-08-01T05:27:07;99145.34;;;22.26;59.79
65280;BME280;51878;55.748;48.742;2022-08-01T05:29:35;99148.91;;;22.26;59.42
65280;BME280;51878;55.748;48.742;2022-08-01T05:32:06;99106.00;;;22.03;58.09
65280;BME280;51878;55.748;48.742;2022-08-01T05:34:34;99118.03;;;22.50;57.45
65280;BME280;51878;55.748;48.742;2022-08-01T05:37:03;99106.97;;;22.40;56.41
65280;BME280;51878;55.748;48.742;2022-08-01T05:39:31;99151.50;;;22.64;56.21
65280;BME280;51878;55.748;48.742;2022-08-01T05:41:58;99124.66;;;22.34;56.80
65280;BME280;51878;55.748;48.742;2022-08-01T05:44:25;99109.50;;;22.57;56.72
65280;BME280;51878;55.748;48.742;2022-08-01T05:47:01;99139.91;;;22.67;56.09
65280;BME280;51878;55.748;48.742;2022-08-01T05:49:29;99128.31;;;22.85;56.14
65280;BME280;51878;55.748;48.742;2022-08-01T05:51:56;99083.00;;;22.71;54.67
65280;BME280;51878;55.748;48.742;2022-08-01T05:54:24;99136.94;;;23.04;55.40
65280;BME280;51878;55.748;48.742;2022-08-01T05:56:51;99133.56;;;23.43;54.11
65280;BME280;51878;55.748;48.742;2022-08-01T05:59:18;99134.09;;;23.61;53.58
65280;BME280;51878;55.748;48.742;2022-08-01T06:01:45;99099.31;;;23.19;54.58
65280;BME280;51878;55.748;48.742;2022-08-01T06:04:13;99137.66;;;23.71;53.53
65280;BME280;51878;55.748;48.742;2022-08-01T06:06:40;99098.38;;;23.80;53.02
65280;BME280;51878;55.748;48.742;2022-08-01T06:09:07;99137.53;;;25.70;51.79
65280;BME280;51878;55.748;48.742;2022-08-01T06:11:34;99133.31;;;25.73;49.20
65280;BME280;51878;55.748;48.742;2022-08-01T06:14:01;99139.53;;;25.65;50.24
65280;BME280;51878;55.748;48.742;2022-08-01T06:16:28;99110.97;;;26.31;47.56
65280;BME280;51878;55.748;48.742;2022-08-01T06:18:55;99129.88;;;26.72;47.19
65280;BME280;51878;55.748;48.742;2022-08-01T06:21:23;99125.66;;;26.75;44.32
65280;BME280;51878;55.748;48.742;2022-08-01T06:23:50;99089.94;;;26.44;44.60
65280;BME280;51878;55.748;48.742;2022-08-01T06:26:18;99093.34;;;28.00;41.80
65280;BME280;51878;55.748;48.742;2022-08-01T06:28:45;99104.03;;;27.05;42.02
65280;BME280;51878;55.748;48.742;2022-08-01T06:31:12;99095.03;;;27.87;39.83
65280;BME280;51878;55.748;48.742;2022-08-01T06:33:59;99128.00;;;29.08;38.19
65280;BME280;51878;55.748;48.742;2022-08-01T06:36:26;99112.66;;;27.82;38.70
65280;BME280;51878;55.748;48.742;2022-08-01T06:38:53;99101.19;;;28.98;37.59
65280;BME280;51878;55.748;48.742;2022-08-01T06:41:21;99112.91;;;29.85;35.97
65280;BME280;51878;55.748;48.742;2022-08-01T06:43:48;99095.00;;;30.04;35.01
65280;BME280;51878;55.748;48.742;2022-08-01T06:46:15;99123.94;;;30.74;34.42
65280;BME280;51878;55.748;48.742;2022-08-01T06:48:42;99080.47;;;29.84;34.67
65280;BME280;51878;55.748;48.742;2022-08-01T06:51:12;99126.94;;;30.12;36.17
65280;BME280;51878;55.748;48.742;2022-08-01T06:53:44;99039.09;;;28.93;37.36
65280;BME280;51878;55.748;48.742;2022-08-01T06:56:12;99130.41;;;29.15;37.81
65280;BME280;51878;55.748;48.742;2022-08-01T06:58:39;99102.13;;;27.66;40.36
65280;BME280;51878;55.748;48.742;2022-08-01T07:01:06;99136.66;;;30.05;35.84
65280;BME280;51878;55.748;48.742;2022-08-01T07:03:34;99121.94;;;29.60;37.15
65280;BME280;51878;55.748;48.742;2022-08-01T07:06:18;99131.16;;;29.60;37.52
65280;BME280;51878;55.748;48.742;2022-08-01T07:08:45;99087.75;;;29.63;35.80
65280;BME280;51878;55.748;48.742;2022-08-01T07:11:12;99109.53;;;32.31;33.00
65280;BME280;51878;55.748;48.742;2022-08-01T07:13:39;99091.84;;;33.48;29.35
65280;BME280;51878;55.748;48.742;2022-08-01T07:16:09;99125.25;;;33.16;29.34
65280;BME280;51878;55.748;48.742;2022-08-01T07:18:37;99121.81;;;33.44;28.28
65280;BME280;51878;55.748;48.742;2022-08-01T07:21:04;99082.66;;;34.74;27.25
65280;BME280;51878;55.748;48.742;2022-08-01T07:23:31;99126.38;;;34.96;27.50
65280;BME280;51878;55.748;48.742;2022-08-01T07:25:59;99111.94;;;32.11;31.91
65280;BME280;51878;55.748;48.742;2022-08-01T07:28:28;99114.69;;;35.10;27.09
65280;BME280;51878;55.748;48.742;2022-08-01T07:30:55;99063.53;;;34.80;27.76
65280;BME280;51878;55.748;48.742;2022-08-01T07:33:22;99121.06;;;32.80;30.78
65280;BME280;51878;55.748;48.742;2022-08-01T07:35:50;99057.94;;;35.11;27.90
65280;BME280;51878;55.748;48.742;2022-08-01T07:38:17;99083.94;;;35.33;27.96
65280;BME280;51878;55.748;48.742;2022-08-01T07:40:44;99089.88;;;35.91;26.33
65280;BME280;51878;55.748;48.742;2022-08-01T07:43:11;99079.41;;;35.60;27.25
65280;BME280;51878;55.748;48.742;2022-08-01T07:45:40;99114.47;;;35.75;27.34
65280;BME280;51878;55.748;48.742;2022-08-01T07:48:09;99117.34;;;36.42;26.62
65280;BME280;51878;55.748;48.742;2022-08-01T07:50:36;99086.31;;;35.31;26.02
65280;BME280;51878;55.748;48.742;2022-08-01T07:53:03;99116.53;;;34.90;27.51
65280;BME280;51878;55.748;48.742;2022-08-01T07:55:31;99095.44;;;33.94;28.71
65280;BME280;51878;55.748;48.742;2022-08-01T07:57:58;99119.22;;;35.71;25.99
65280;BME280;51878;55.748;48.742;2022-08-01T08:00:25;99089.13;;;35.31;26.47
65280;BME280;51878;55.748;48.742;2022-08-01T08:02:54;99110.72;;;35.55;26.24
65280;BME280;51878;55.748;48.742;2022-08-01T08:05:22;99112.47;;;36.23;26.99
65280;BME280;51878;55.748;48.742;2022-08-01T08:08:09;99121.78;;;34.63;27.08
65280;BME280;51878;55.748;48.742;2022-08-01T08:10:37;99097.06;;;34.32;27.54
65280;BME280;51878;55.748;48.742;2022-08-01T08:13:04;99097.84;;;35.26;26.87
65280;BME280;51878;55.748;48.742;2022-08-01T08:15:31;99081.56;;;34.38;31.03
65280;BME280;51878;55.748;48.742;2022-08-01T08:17:58;99082.50;;;35.39;26.36
65280;BME280;51878;55.748;48.742;2022-08-01T08:20:26;99092.00;;;35.78;27.00
65280;BME280;51878;55.748;48.742;2022-08-01T08:22:56;99081.19;;;35.21;26.87
65280;BME280;51878;55.748;48.742;2022-08-01T08:25:27;99062.16;;;36.64;24.69
65280;BME280;51878;55.748;48.742;2022-08-01T08:27:55;99117.13;;;35.68;26.59
65280;BME280;51878;55.748;48.742;2022-08-01T08:30:23;99091.81;;;33.93;26.79
65280;BME280;51878;55.748;48.742;2022-08-01T08:32:50;99071.78;;;33.04;29.06
65280;BME280;51878;55.748;48.742;2022-08-01T08:35:17;99047.28;;;35.80;25.94
65280;BME280;51878;55.748;48.742;2022-08-01T08:37:48;99045.00;;;34.94;25.26
65280;BME280;51878;55.748;48.742;2022-08-01T08:40:15;99077.53;;;36.67;23.41
65280;BME280;51878;55.748;48.742;2022-08-01T08:42:44;99109.28;;;36.60;23.24
65280;BME280;51878;55.748;48.742;2022-08-01T08:45:13;99075.00;;;37.00;21.26
65280;BME280;51878;55.748;48.742;2022-08-01T08:47:41;99098.16;;;38.44;21.35
65280;BME280;51878;55.748;48.742;2022-08-01T08:50:10;99105.25;;;38.88;20.02
65280;BME280;51878;55.748;48.742;2022-08-01T08:52:41;99097.53;;;38.55;20.14
65280;BME280;51878;55.748;48.742;2022-08-01T08:55:11;99046.50;;;37.75;20.05
65280;BME280;51878;55.748;48.742;2022-08-01T08:57:43;99112.84;;;36.06;22.33
65280;BME280;51878;55.748;48.742;2022-08-01T09:00:29;99109.09;;;36.88;22.79
65280;BME280;51878;55.748;48.742;2022-08-01T09:02:56;99064.69;;;37.08;22.87
65280;BME280;51878;55.748;48.742;2022-08-01T09:05:23;99113.41;;;37.63;21.29
65280;BME280;51878;55.748;48.742;2022-08-01T09:08:07;99056.34;;;36.76;21.75
65280;BME280;51878;55.748;48.742;2022-08-01T09:10:35;99102.84;;;35.92;23.33
65280;BME280;51878;55.748;48.742;2022-08-01T09:13:11;99072.63;;;36.83;22.98
65280;BME280;51878;55.748;48.742;2022-08-01T09:15:48;99107.78;;;35.51;24.83
65280;BME280;51878;55.748;48.742;2022-08-01T09:23:37;99099.31;;;36.31;22.65
65280;BME280;51878;55.748;48.742;2022-08-01T09:26:28;99038.44;;;36.33;22.93
65280;BME280;51878;55.748;48.742;2022-08-01T09:28:57;99072.47;;;34.97;23.84
65280;BME280;51878;55.748;48.742;2022-08-01T09:31:27;99073.59;;;36.16;22.90
65280;BME280;51878;55.748;48.742;2022-08-01T09:34:04;99095.69;;;37.05;23.10
65280;BME280;51878;55.748;48.742;2022-08-01T09:36:54;99093.31;;;37.07;21.07
65280;BME280;51878;55.748;48.742;2022-08-01T09:39:28;99094.28;;;38.03;20.74
65280;BME280;51878;55.748;48.742;2022-08-01T09:41:56;99078.13;;;35.26;23.40
65280;BME280;51878;55.748;48.742;2022-08-01T09:44:41;99097.31;;;36.31;23.04
65280;BME280;51878;55.748;48.742;2022-08-01T09:47:11;99087.41;;;35.58;23.37
65280;BME280;51878;55.748;48.742;2022-08-01T09:49:41;99085.69;;;36.52;22.60
65280;BME280;51878;55.748;48.742;2022-08-01T09:52:16;99102.53;;;36.29;22.17
65280;BME280;51878;55.748;48.742;2022-08-01T09:57:22;99102.84;;;38.07;21.20
65280;BME280;51878;55.748;48.742;2022-08-01T09:59:54;99100.69;;;37.31;22.38
65280;BME280;51878;55.748;48.742;2022-08-01T10:02:38;99095.50;;;36.58;22.02
65280;BME280;51878;55.748;48.742;2022-08-01T10:05:32;99071.00;;;35.16;24.64
65280;BME280;51878;55.748;48.742;2022-08-01T10:08:04;99082.88;;;34.04;25.32
65280;BME280;51878;55.748;48.742;2022-08-01T10:10:33;99036.53;;;33.40;26.67
65280;BME280;51878;55.748;48.742;2022-08-01T10:13:01;99098.13;;;34.40;25.47
65280;BME280;51878;55.748;48.742;2022-08-01T10:15:30;99089.88;;;36.07;25.07
65280;BME280;51878;55.748;48.742;2022-08-01T10:18:06;99101.13;;;36.39;22.70
65280;BME280;51878;55.748;48.742;2022-08-01T10:20:42;99063.81;;;34.90;24.69
65280;BME280;51878;55.748;48.742;2022-08-01T10:23:10;99095.84;;;33.13;26.77
65280;BME280;51878;55.748;48.742;2022-08-01T10:25:43;99059.69;;;34.60;25.05
65280;BME280;51878;55.748;48.742;2022-08-01T10:28:17;99031.66;;;34.51;23.91
65280;BME280;51878;55.748;48.742;2022-08-01T10:30:47;99096.63;;;35.87;23.43
65280;BME280;51878;55.748;48.742;2022-08-01T10:33:34;99094.56;;;35.84;22.87
65280;BME280;51878;55.748;48.742;2022-08-01T10:36:19;99099.16;;;34.88;24.69
65280;BME280;51878;55.748;48.742;2022-08-01T10:38:48;99100.50;;;34.78;24.19
65280;BME280;51878;55.748;48.742;2022-08-01T10:41:18;99011.84;;;34.47;24.03
65280;BME280;51878;55.748;48.742;2022-08-01T10:43:46;99088.06;;;35.99;23.00
65280;BME280;51878;55.748;48.742;2022-08-01T10:46:13;99089.28;;;36.33;23.24
65280;BME280;51878;55.748;48.742;2022-08-01T10:51:18;99069.72;;;34.32;23.42
65280;BME280;51878;55.748;48.742;2022-08-01T10:53:50;99083.13;;;34.23;24.60
65280;BME280;51878;55.748;48.742;2022-08-01T10:56:21;99074.38;;;34.93;23.46
65280;BME280;51878;55.748;48.742;2022-08-01T10:59:00;99064.94;;;33.84;27.38
65280;BME280;51878;55.748;48.742;2022-08-01T11:01:32;99030.69;;;34.59;26.26
65280;BME280;51878;55.748;48.742;2022-08-01T11:04:10;99086.94;;;35.24;25.67
65280;BME280;51878;55.748;48.742;2022-08-01T11:06:52;99083.00;;;34.20;25.77
65280;BME280;51878;55.748;48.742;2022-08-01T11:09:24;99095.78;;;34.17;26.31
65280;BME280;51878;55.748;48.742;2022-08-01T11:12:14;99023.91;;;34.88;26.00
65280;BME280;51878;55.748;48.742;2022-08-01T11:20:16;99098.75;;;33.50;26.37
65280;BME280;51878;55.748;48.742;2022-08-01T11:28:23;99051.75;;;32.30;26.68
65280;BME280;51878;55.748;48.742;2022-08-01T11:38:48;99087.59;;;32.54;27.33
65280;BME280;51878;55.748;48.742;2022-08-01T11:41:26;99090.84;;;33.31;25.86
65280;BME280;51878;55.748;48.742;2022-08-01T11:47:05;99084.84;;;31.47;27.24
65280;BME280;51878;55.748;48.742;2022-08-01T11:49:46;99058.78;;;29.81;29.42
65280;BME280;51878;55.748;48.742;2022-08-01T11:52:31;99041.91;;;30.21;29.74
65280;BME280;51878;55.748;48.742;2022-08-01T11:57:31;99097.75;;;31.78;28.86
65280;BME280;51878;55.748;48.742;2022-08-01T12:00:12;99053.69;;;31.49;28.62
65280;BME280;51878;55.748;48.742;2022-08-01T12:02:41;99043.00;;;31.34;29.64
65280;BME280;51878;55.748;48.742;2022-08-01T12:05:10;99047.16;;;31.10;29.43
65280;BME280;51878;55.748;48.742;2022-08-01T12:07:42;99084.44;;;32.05;28.23
65280;BME280;51878;55.748;48.742;2022-08-01T12:10:15;99092.16;;;33.01;28.08
65280;BME280;51878;55.748;48.742;2022-08-01T12:12:48;99085.91;;;32.32;27.74
65280;BME280;51878;55.748;48.742;2022-08-01T12:15:17;99048.88;;;32.39;27.40
65280;BME280;51878;55.748;48.742;2022-08-01T12:17:46;99082.00;;;32.24;28.40
65280;BME280;51878;55.748;48.742;2022-08-01T12:23:22;99090.91;;;31.88;28.26
65280;BME280;51878;55.748;48.742;2022-08-01T12:25:53;99086.75;;;31.64;28.52
65280;BME280;51878;55.748;48.742;2022-08-01T12:28:21;99104.69;;;31.72;28.25
65280;BME280;51878;55.748;48.742;2022-08-01T12:30:48;99026.03;;;31.21;29.08
65280;BME280;51878;55.748;48.742;2022-08-01T12:33:20;99083.47;;;32.01;28.01
65280;BME280;51878;55.748;48.742;2022-08-01T12:35:48;99089.75;;;31.98;27.86
65280;BME280;51878;55.748;48.742;2022-08-01T12:38:20;99081.34;;;31.98;27.49
65280;BME280;51878;55.748;48.742;2022-08-01T12:40:49;99098.09;;;30.77;29.19
65280;BME280;51878;55.748;48.742;2022-08-01T12:43:18;99102.53;;;30.78;29.26
65280;BME280;51878;55.748;48.742;2022-08-01T12:45:48;99090.34;;;30.74;28.92
65280;BME280;51878;55.748;48.742;2022-08-01T12:48:20;98981.81;;;30.80;29.17
65280;BME280;51878;55.748;48.742;2022-08-01T12:50:48;99057.88;;;31.08;29.63
65280;BME280;51878;55.748;48.742;2022-08-01T12:53:16;99057.09;;;30.73;30.59
65280;BME280;51878;55.748;48.742;2022-08-01T12:55:50;99069.53;;;31.45;30.12
65280;BME280;51878;55.748;48.742;2022-08-01T12:58:29;99076.94;;;32.18;28.57
65280;BME280;51878;55.748;48.742;2022-08-01T13:01:08;99055.66;;;31.40;29.31
65280;BME280;51878;55.748;48.742;2022-08-01T13:03:35;99055.59;;;31.57;29.16
65280;BME280;51878;55.748;48.742;2022-08-01T13:06:13;99082.81;;;32.04;28.57
65280;BME280;51878;55.748;48.742;2022-08-01T13:08:42;99058.53;;;31.14;29.33
65280;BME280;51878;55.748;48.742;2022-08-01T13:11:11;99092.91;;;31.40;29.90
65280;BME280;51878;55.748;48.742;2022-08-01T13:13:48;99087.56;;;30.74;29.67
65280;BME280;51878;55.748;48.742;2022-08-01T13:16:18;99059.88;;;30.46;30.38
65280;BME280;51878;55.748;48.742;2022-08-01T13:19:00;99094.97;;;30.70;29.96
65280;BME280;51878;55.748;48.742;2022-08-01T13:21:28;99084.75;;;30.48;30.42
65280;BME280;51878;55.748;48.742;2022-08-01T13:24:11;99087.56;;;30.57;30.95
65280;BME280;51878;55.748;48.742;2022-08-01T13:26:57;99096.75;;;29.82;32.09
65280;BME280;51878;55.748;48.742;2022-08-01T13:29:43;99088.91;;;29.93;32.16
65280;BME280;51878;55.748;48.742;2022-08-01T13:32:19;99058.59;;;28.48;34.63
65280;BME280;51878;55.748;48.742;2022-08-01T13:34:48;99019.66;;;28.42;34.49
65280;BME280;51878;55.748;48.742;2022-08-01T13:37:16;99055.31;;;29.44;34.05
65280;BME280;51878;55.748;48.742;2022-08-01T13:39:46;99046.50;;;29.20;34.64
65280;BME280;51878;55.748;48.742;2022-08-01T13:42:15;99067.47;;;29.09;35.17
65280;BME280;51878;55.748;48.742;2022-08-01T13:44:44;99054.75;;;28.43;36.19
65280;BME280;51878;55.748;48.742;2022-08-01T13:47:14;98992.56;;;28.20;36.14
65280;BME280;51878;55.748;48.742;2022-08-01T13:49:44;99055.47;;;27.57;37.31
65280;BME280;51878;55.748;48.742;2022-08-01T13:52:11;99054.50;;;28.31;37.53
65280;BME280;51878;55.748;48.742;2022-08-01T13:54:38;99086.69;;;28.51;36.29
65280;BME280;51878;55.748;48.742;2022-08-01T13:57:05;99092.94;;;29.16;35.61
65280;BME280;51878;55.748;48.742;2022-08-01T13:59:32;98998.63;;;27.72;35.97